createdAt,value
2022-11-18T00:02:18.358Z,99422.25
2022-11-18T00:04:46.090Z,99438.91
2022-11-18T00:07:13.980Z,99427.53
2022-11-18T00:09:41.814Z,99443.38
2022-11-18T00:12:27.304Z,99447.81
2022-11-18T00:14:55.036Z,99441.72
2022-11-18T00:17:24.146Z,99442.31
2022-11-18T00:19:51.804Z,99451.59
2022-11-18T00:22:19.434Z,99448.94
2022-11-18T00:24:47.066Z,99459.50
2022-11-18T00:27:14.797Z,99458.81
2022-11-18T00:29:43.030Z,99463.94
2022-11-18T00:32:10.767Z,99457.53
2022-11-18T00:34:39.951Z,99456.16
2022-11-18T00:37:07.679Z,99466.44
2022-11-18T00:39:35.362Z,99468.25
2022-11-18T00:42:20.590Z,99469.91
2022-11-18T00:44:48.280Z,99457.69
2022-11-18T00:47:15.954Z,99473.22
2022-11-18T00:49:45.036Z,99468.91
2022-11-18T00:52:12.735Z,99469.75
2022-11-18T00:54:40.484Z,99467.94
2022-11-18T00:57:08.240Z,99474.34
2022-11-18T00:59:36.006Z,99467.94
2022-11-18T01:02:03.717Z,99469.59
2022-11-18T01:04:32.830Z,99471.41
2022-11-18T01:07:02.015Z,99478.03
2022-11-18T01:09:30.070Z,99480.81
2022-11-18T01:12:16.284Z,99479.97
2022-11-18T01:14:44.051Z,99481.63
2022-11-18T01:17:11.862Z,99483.31
2022-11-18T01:19:39.884Z,99481.34
2022-11-18T01:22:08.958Z,99492.41
2022-11-18T01:24:37.207Z,99487.03
2022-11-18T01:27:05.487Z,99489.66
2022-11-18T01:29:33.247Z,99471.78
2022-11-18T01:32:23.311Z,99485.72
2022-11-18T01:34:48.876Z,99482.41
2022-11-18T01:37:17.958Z,99493.63
2022-11-18T01:39:45.651Z,99491.59
2022-11-18T01:42:16.353Z,99495.84
2022-11-18T01:45:10.026Z,99493.31
2022-11-18T01:47:43.238Z,99504.56
2022-11-18T01:50:11.723Z,99494.03
2022-11-18T01:52:41.422Z,99507.88
2022-11-18T01:55:13.301Z,99498.00
2022-11-18T01:57:42.169Z,99506.22
2022-11-18T02:00:11.217Z,99500.94
2022-11-18T02:02:39.109Z,99506.22
2022-11-18T02:05:09.082Z,99520.25
2022-11-18T02:07:40.383Z,99510.84
2022-11-18T02:10:09.112Z,99512.50
2022-11-18T02:12:37.491Z,99521.53
2022-11-18T02:15:06.630Z,99523.06
2022-11-18T02:17:41.982Z,99524.03
2022-11-18T02:20:43.334Z,99522.34
2022-11-18T02:23:38.695Z,99538.19
2022-11-18T02:26:40.024Z,99537.22
2022-11-18T02:29:11.601Z,99541.97
2022-11-18T02:31:45.712Z,99533.75
2022-11-18T02:34:19.363Z,99541.81
2022-11-18T02:36:52.820Z,99540.16
2022-11-18T02:39:23.895Z,99536.84
2022-11-18T02:41:52.951Z,99549.22
2022-11-18T02:44:24.006Z,99545.75
2022-11-18T02:46:54.654Z,99542.19
2022-11-18T02:49:27.304Z,99549.66
2022-11-18T02:51:55.934Z,99546.34
2022-11-18T02:54:23.970Z,99568.94
2022-11-18T02:56:52.916Z,99565.47
2022-11-18T02:59:22.227Z,99556.06
2022-11-18T03:01:50.000Z,99548.06
2022-11-18T03:04:18.675Z,99558.41
2022-11-18T03:06:50.590Z,99555.75
2022-11-18T03:09:23.495Z,99565.47
2022-11-18T03:11:58.084Z,99558.56
2022-11-18T03:14:33.706Z,99562.31
2022-11-18T03:17:03.754Z,99580.25
2022-11-18T03:19:42.311Z,99586.59
2022-11-18T03:22:14.007Z,99578.00
2022-11-18T03:24:45.635Z,99584.94
2022-11-18T03:27:16.639Z,99589.38
2022-11-18T03:29:50.820Z,99587.06
2022-11-18T03:32:21.264Z,99600.09
2022-11-18T03:34:51.131Z,99595.81
2022-11-18T03:37:20.358Z,99587.19
2022-11-18T03:39:50.941Z,99608.00
2022-11-18T03:42:23.546Z,99599.69
2022-11-18T03:44:54.304Z,99598.06
2022-11-18T03:47:25.798Z,99608.00
2022-11-18T03:49:56.838Z,99624.53
2022-11-18T03:52:27.962Z,99613.97
2022-11-18T03:54:57.496Z,99630.47
2022-11-18T03:57:28.792Z,99626.03
2022-11-18T04:00:05.208Z,99633.13
2022-11-18T04:02:32.995Z,99632.16
2022-11-18T04:05:02.333Z,99636.72
2022-11-18T04:07:33.909Z,99640.91
2022-11-18T04:10:05.463Z,99634.09
2022-11-18T04:12:35.781Z,99649.66
2022-11-18T04:15:06.025Z,99654.94
2022-11-18T04:17:33.802Z,99654.94
2022-11-18T04:20:01.831Z,99651.31
2022-11-18T04:22:29.512Z,99648.66
2022-11-18T04:24:57.167Z,99656.59
2022-11-18T04:27:24.959Z,99649.66
2022-11-18T04:29:52.731Z,99663.53
2022-11-18T04:32:21.774Z,99650.25
2022-11-18T04:34:49.577Z,99655.22
2022-11-18T04:37:17.245Z,99663.53
2022-11-18T04:39:44.867Z,99665.34
2022-11-18T04:42:12.675Z,99672.41
2022-11-18T04:44:40.380Z,99668.81
2022-11-18T04:47:08.381Z,99671.44
2022-11-18T04:49:37.845Z,99678.53
2022-11-18T04:52:06.597Z,99678.28
2022-11-18T04:54:34.314Z,99683.25
2022-11-18T04:57:02.011Z,99686.88
2022-11-18T04:59:30.698Z,99679.41
2022-11-18T05:02:00.894Z,99681.91
2022-11-18T05:04:33.372Z,99673.06
2022-11-18T05:07:03.994Z,99694.41
2022-11-18T05:09:32.593Z,99694.41
2022-11-18T05:12:18.101Z,99693.59
2022-11-18T05:14:50.202Z,99693.72
2022-11-18T05:17:18.957Z,99700.81
2022-11-18T05:19:46.760Z,99700.94
2022-11-18T05:22:15.919Z,99701.63
2022-11-18T05:24:43.772Z,99711.19
2022-11-18T05:27:12.250Z,99716.78
2022-11-18T05:29:40.068Z,99712.78
2022-11-18T05:32:07.865Z,99720.94
2022-11-18T05:34:35.580Z,99728.00
2022-11-18T05:37:03.434Z,99720.09
2022-11-18T05:39:33.848Z,99728.31
2022-11-18T05:42:19.138Z,99733.44
2022-11-18T05:44:47.016Z,99737.22
2022-11-18T05:47:15.033Z,99735.41
2022-11-18T05:49:42.798Z,99736.38
2022-11-18T05:52:10.563Z,99731.38
2022-11-18T05:54:43.885Z,99742.75
2022-11-18T05:57:11.643Z,99739.19
2022-11-18T05:59:39.387Z,99743.47
2022-11-18T06:02:09.047Z,99747.78
2022-11-18T06:04:40.822Z,99744.31
2022-11-18T06:07:11.255Z,99759.97
2022-11-18T06:09:42.226Z,99748.34
2022-11-18T06:12:10.430Z,99756.50
2022-11-18T06:14:41.185Z,99760.97
2022-11-18T06:17:16.341Z,99765.25
2022-11-18T06:19:44.083Z,99782.59
2022-11-18T06:22:11.954Z,99777.31
2022-11-18T06:24:44.522Z,99773.03
2022-11-18T06:27:12.721Z,99780.09
2022-11-18T06:29:40.427Z,99786.38
2022-11-18T06:32:08.491Z,99788.84
2022-11-18T06:34:41.232Z,99794.28
2022-11-18T06:37:15.663Z,99795.13
2022-11-18T06:39:45.082Z,99802.19
2022-11-18T06:42:32.855Z,99796.78
2022-11-18T06:44:59.628Z,99804.69
2022-11-18T06:47:27.404Z,99806.50
2022-11-18T06:49:55.158Z,99815.25
2022-11-18T06:52:23.297Z,99813.72
2022-11-18T06:54:52.400Z,99830.25
2022-11-18T06:57:20.138Z,99825.81
2022-11-18T06:59:48.475Z,99831.91
2022-11-18T07:02:18.930Z,99837.19
2022-11-18T07:04:47.107Z,99842.47
2022-11-18T07:07:14.949Z,99846.75
2022-11-18T07:09:42.707Z,99849.41
2022-11-18T07:12:11.840Z,99855.50
2022-11-18T07:14:39.596Z,99855.50
2022-11-18T07:17:07.453Z,99855.50
2022-11-18T07:19:36.102Z,99861.75
2022-11-18T07:22:04.261Z,99872.16
2022-11-18T07:24:32.402Z,99879.13
2022-11-18T07:27:00.419Z,99874.81
2022-11-18T07:29:29.483Z,99881.91
2022-11-18T07:31:57.285Z,99872.47
2022-11-18T07:34:25.304Z,99887.31
2022-11-18T07:36:53.075Z,99888.28
2022-11-18T07:39:21.141Z,99897.19
2022-11-18T07:41:48.924Z,99896.63
2022-11-18T07:44:17.457Z,99901.78
2022-11-18T07:46:46.699Z,99892.22
2022-11-18T07:49:14.666Z,99902.03
2022-11-18T07:51:42.683Z,99898.56
2022-11-18T07:54:12.061Z,99899.97
2022-11-18T07:56:40.085Z,99900.53
2022-11-18T07:59:09.119Z,99914.56
2022-11-18T08:01:37.257Z,99913.72
2022-11-18T08:04:10.887Z,99914.69
2022-11-18T08:06:40.438Z,99925.78
2022-11-18T08:09:08.976Z,99931.78
2022-11-18T08:11:37.257Z,99931.78
2022-11-18T08:14:05.076Z,99946.63
2022-11-18T08:16:32.817Z,99941.38
2022-11-18T08:19:01.349Z,99939.69
2022-11-18T08:21:30.486Z,99946.63
2022-11-18T08:23:58.929Z,99947.31
2022-11-18T08:26:28.054Z,99952.59
2022-11-18T08:28:56.208Z,99953.59
2022-11-18T08:31:25.807Z,99960.53
2022-11-18T08:33:56.170Z,99971.75
2022-11-18T08:36:25.864Z,99959.41
2022-11-18T08:38:56.348Z,99978.69
2022-11-18T08:41:29.459Z,99960.53
2022-11-18T08:43:57.293Z,99967.16
2022-11-18T08:46:27.045Z,99966.34
2022-11-18T08:48:54.771Z,99974.13
2022-11-18T08:51:22.653Z,99969.69
2022-11-18T08:53:51.632Z,99977.47
2022-11-18T08:56:22.435Z,99980.09
2022-11-18T08:58:50.541Z,99981.78
2022-11-18T09:01:18.727Z,99984.56
2022-11-18T09:03:47.265Z,99982.75
2022-11-18T09:06:17.417Z,99985.25
2022-11-18T09:08:45.668Z,99991.34
2022-11-18T09:11:15.500Z,99990.66
2022-11-18T09:16:34.351Z,99996.38
2022-11-18T09:19:24.370Z,100003.31
2022-11-18T09:21:50.068Z,100006.94
2022-11-18T09:24:18.063Z,100006.94
2022-11-18T09:26:46.193Z,100008.59
2022-11-18T09:29:15.354Z,100006.78
2022-11-18T09:31:43.132Z,100014.84
2022-11-18T09:34:11.197Z,100015.78
2022-11-18T09:36:39.129Z,100015.69
2022-11-18T09:39:06.820Z,100016.63
2022-11-18T09:41:44.274Z,100017.34
2022-11-18T09:44:26.992Z,100021.63
2022-11-18T09:47:01.120Z,100023.31
2022-11-18T09:49:30.727Z,100023.84
2022-11-18T09:51:59.028Z,100028.44
2022-11-18T09:54:29.200Z,100029.41
2022-11-18T09:56:57.182Z,100047.88
2022-11-18T09:59:28.807Z,100044.28
2022-11-18T10:02:19.626Z,100045.25
2022-11-18T10:04:47.447Z,100044.97
2022-11-18T10:07:17.751Z,100048.31
2022-11-18T10:09:46.538Z,100045.69
2022-11-18T10:12:22.101Z,100058.59
2022-11-18T10:15:05.123Z,100054.72
2022-11-18T10:17:45.587Z,100058.72
2022-11-18T10:20:23.289Z,100055.09
2022-11-18T10:22:54.093Z,100062.78
2022-11-18T10:25:22.132Z,100062.47
2022-11-18T10:27:50.992Z,100071.09
2022-11-18T10:30:22.347Z,100071.91
2022-11-18T10:32:57.748Z,100078.91
2022-11-18T10:35:29.259Z,100077.09
2022-11-18T10:38:09.122Z,100078.06
2022-11-18T10:40:39.372Z,100084.72
2022-11-18T10:43:07.073Z,100081.09
2022-11-18T10:45:36.550Z,100094.16
2022-11-18T10:48:09.570Z,100084.31
2022-11-18T10:50:38.871Z,100079.72
2022-11-18T10:53:07.922Z,100085.53
2022-11-18T10:55:36.155Z,100081.66
2022-11-18T10:58:11.889Z,100079.69
2022-11-18T11:00:46.993Z,100084.56
2022-11-18T11:03:31.796Z,100085.25
2022-11-18T11:09:26.376Z,100077.19
2022-11-18T11:11:59.329Z,100084.41
2022-11-18T11:14:29.814Z,100097.22
2022-11-18T11:17:11.027Z,100082.72
2022-11-18T11:19:44.918Z,100096.69
2022-11-18T11:22:13.286Z,100098.34
2022-11-18T11:24:41.227Z,100085.28
2022-11-18T11:30:12.833Z,100082.72
2022-11-18T11:33:26.637Z,100080.69
2022-11-18T11:36:11.356Z,100102.81
2022-11-18T11:38:50.116Z,100108.09
2022-11-18T11:41:23.773Z,100102.19
2022-11-18T11:44:07.749Z,100101.97
2022-11-18T11:46:39.916Z,100095.69
2022-11-18T11:49:20.145Z,100106.13
2022-11-18T11:51:52.297Z,100106.66
2022-11-18T11:54:34.793Z,100103.34
2022-11-18T11:57:06.386Z,100115.56
2022-11-18T11:59:39.419Z,100108.91
2022-11-18T12:02:25.364Z,100110.00
2022-11-18T12:04:56.719Z,100107.38
2022-11-18T12:07:27.695Z,100105.44
2022-11-18T12:10:06.699Z,100115.28
2022-11-18T12:12:38.219Z,100114.44
2022-11-18T12:15:13.367Z,100118.06
2022-11-18T12:17:46.663Z,100123.63
2022-11-18T12:20:41.245Z,100126.97
2022-11-18T12:23:17.576Z,100124.75
2022-11-18T12:26:01.370Z,100131.81
2022-11-18T12:28:34.127Z,100123.66
2022-11-18T12:31:36.402Z,100142.53
2022-11-18T12:34:07.159Z,100128.94
2022-11-18T12:36:38.616Z,100135.16
2022-11-18T12:39:58.400Z,100136.97
2022-11-18T12:42:56.377Z,100128.91
2022-11-18T12:45:50.771Z,100145.88
2022-11-18T12:48:43.949Z,100142.25
2022-11-18T12:51:45.164Z,100146.72
2022-11-18T12:54:27.851Z,100151.31
2022-11-18T12:56:56.094Z,100151.59
2022-11-18T12:59:31.877Z,100159.78
2022-11-18T13:02:21.348Z,100157.28
2022-11-18T13:05:09.880Z,100168.13
2022-11-18T13:08:00.326Z,100169.22
2022-11-18T13:10:32.072Z,100175.63
2022-11-18T13:13:00.357Z,100171.72
2022-11-18T13:15:46.745Z,100176.44
2022-11-18T13:18:16.716Z,100185.31
2022-11-18T13:20:44.941Z,100184.22
2022-11-18T13:23:48.065Z,100192.53
2022-11-18T13:26:20.858Z,100183.94
2022-11-18T13:29:03.034Z,100193.91
2022-11-18T13:31:36.066Z,100199.75
2022-11-18T13:34:04.927Z,100206.13
2022-11-18T13:36:33.033Z,100212.66
2022-11-18T13:39:02.804Z,100223.34
2022-11-18T13:41:34.406Z,100198.00
2022-11-18T13:44:13.162Z,100221.66
2022-11-18T13:46:41.992Z,100216.34
2022-11-18T13:49:13.753Z,100226.38
2022-11-18T13:51:41.833Z,100223.88
2022-11-18T13:54:12.524Z,100222.47
2022-11-18T13:56:42.011Z,100228.72
2022-11-18T13:59:18.073Z,100223.44
2022-11-18T14:01:46.766Z,100221.06
2022-11-18T14:04:20.769Z,100211.84
2022-11-18T14:06:48.589Z,100221.00
2022-11-18T14:09:21.408Z,100222.13
2022-11-18T14:12:02.060Z,100215.16
2022-11-18T14:14:31.887Z,100213.50
2022-11-18T14:17:16.429Z,100206.50
2022-11-18T14:19:44.497Z,100225.56
2022-11-18T14:22:15.331Z,100230.97
2022-11-18T14:24:43.352Z,100232.88
2022-11-18T14:27:36.437Z,100242.88
2022-11-18T14:30:33.709Z,100237.41
2022-11-18T14:33:18.656Z,100252.00
2022-11-18T14:35:50.127Z,100258.50
2022-11-18T14:38:38.470Z,100266.94
2022-11-18T14:41:09.775Z,100244.09
2022-11-18T14:43:39.220Z,100264.94
2022-11-18T14:46:12.212Z,100259.72
2022-11-18T14:48:39.925Z,100256.81
2022-11-18T14:51:07.728Z,100260.81
2022-11-18T14:53:35.418Z,100262.97
2022-11-18T14:56:04.390Z,100276.16
2022-11-18T14:58:32.099Z,100266.13
2022-11-18T15:01:01.375Z,100265.41
2022-11-18T15:03:29.150Z,100278.81
2022-11-18T15:05:56.862Z,100280.50
2022-11-18T15:08:24.579Z,100280.63
2022-11-18T15:10:52.319Z,100285.44
2022-11-18T15:13:20.059Z,100291.78
2022-11-18T15:15:48.136Z,100299.97
2022-11-18T15:18:17.157Z,100289.09
2022-11-18T15:20:44.860Z,100304.06
2022-11-18T15:23:12.527Z,100299.97
2022-11-18T15:25:40.340Z,100316.03
2022-11-18T15:28:10.531Z,100319.88
2022-11-18T15:30:39.284Z,100314.50
2022-11-18T15:33:06.945Z,100318.94
2022-11-18T15:35:35.952Z,100326.97
2022-11-18T15:38:03.690Z,100322.78
2022-11-18T15:40:31.391Z,100324.97
2022-11-18T15:42:58.984Z,100320.88
2022-11-18T15:45:26.631Z,100325.91
2022-11-18T15:47:54.329Z,100345.41
2022-11-18T15:50:22.036Z,100341.50
2022-11-18T15:52:51.120Z,100341.97
2022-11-18T15:55:18.868Z,100342.69
2022-11-18T15:57:46.496Z,100347.59
2022-11-18T16:00:15.506Z,100340.41
2022-11-18T16:02:45.266Z,100350.94
2022-11-18T16:05:13.493Z,100352.25
2022-11-18T16:07:41.596Z,100364.69
2022-11-18T16:10:40.878Z,100350.34
2022-11-18T16:13:08.595Z,100383.59
2022-11-18T16:15:48.027Z,100375.19
2022-11-18T16:18:17.907Z,100387.63
2022-11-18T16:20:45.584Z,100377.56
2022-11-18T16:23:13.284Z,100378.03
2022-11-18T16:25:46.223Z,100388.72
2022-11-18T16:28:13.901Z,100392.38
2022-11-18T16:30:59.031Z,100396.59
2022-11-18T16:33:26.699Z,100391.44
2022-11-18T16:35:54.383Z,100404.38
2022-11-18T16:38:22.160Z,100403.88
2022-11-18T16:40:57.470Z,100403.38
2022-11-18T16:43:25.743Z,100400.28
2022-11-18T16:45:53.810Z,100393.66
2022-11-18T16:48:22.213Z,100393.53
2022-11-18T16:51:01.225Z,100411.13
2022-11-18T16:53:28.961Z,100406.94
2022-11-18T16:56:03.635Z,100426.31
2022-11-18T16:58:31.337Z,100422.34
2022-11-18T17:01:29.645Z,100437.72
2022-11-18T17:03:47.076Z,100429.13
2022-11-18T17:06:14.801Z,100430.06
2022-11-18T17:08:42.580Z,100428.59
2022-11-18T17:11:13.353Z,100433.59
2022-11-18T17:13:41.802Z,100444.94
2022-11-18T17:16:11.317Z,100441.72
2022-11-18T17:18:39.119Z,100435.50
2022-11-18T17:21:07.986Z,100467.03
2022-11-18T17:23:36.043Z,100462.00
2022-11-18T17:26:03.758Z,100461.50
2022-11-18T17:28:34.352Z,100464.53
2022-11-18T17:31:05.994Z,100474.53
2022-11-18T17:33:33.700Z,100471.41
2022-11-18T17:36:02.332Z,100468.25
2022-11-18T17:38:30.273Z,100475.91
2022-11-18T17:40:58.701Z,100479.28
2022-11-18T17:43:27.526Z,100488.09
2022-11-18T17:45:57.661Z,100481.16
2022-11-18T17:48:26.837Z,100491.19
2022-11-18T17:50:54.733Z,100507.91
2022-11-18T17:53:23.293Z,100503.56
2022-11-18T17:55:50.956Z,100505.28
2022-11-18T17:58:18.599Z,100513.03
2022-11-18T18:00:46.427Z,100520.28
2022-11-18T18:03:18.037Z,100527.22
2022-11-18T18:05:45.796Z,100522.19
2022-11-18T18:08:13.558Z,100528.69
2022-11-18T18:10:41.479Z,100528.50
2022-11-18T18:13:27.420Z,100527.66
2022-11-18T18:16:02.046Z,100535.00
2022-11-18T18:18:31.469Z,100528.72
2022-11-18T18:21:02.151Z,100530.41
2022-11-18T18:23:30.598Z,100539.44
2022-11-18T18:26:02.358Z,100540.28
2022-11-18T18:28:30.093Z,100539.75
2022-11-18T18:31:01.403Z,100544.16
2022-11-18T18:33:29.293Z,100547.94
2022-11-18T18:35:59.082Z,100546.34
2022-11-18T18:38:27.325Z,100537.75
2022-11-18T18:40:55.521Z,100546.13
2022-11-18T18:43:23.952Z,100546.59
2022-11-18T18:46:09.284Z,100545.94
2022-11-18T18:48:37.148Z,100548.22
2022-11-18T18:51:07.150Z,100550.25
2022-11-18T18:53:35.222Z,100549.47
2022-11-18T18:56:02.885Z,100546.13
2022-11-18T18:58:30.674Z,100548.00
2022-11-18T19:01:06.100Z,100562.47
2022-11-18T19:03:33.882Z,100567.72
2022-11-18T19:06:34.601Z,100572.03
2022-11-18T19:08:50.773Z,100573.94
2022-11-18T19:11:36.376Z,100571.69
2022-11-18T19:14:06.083Z,100585.94
2022-11-18T19:16:34.046Z,100578.41
2022-11-18T19:19:01.696Z,100593.28
2022-11-18T19:21:29.444Z,100597.88
2022-11-18T19:23:58.548Z,100597.88
2022-11-18T19:26:26.272Z,100603.22
2022-11-18T19:28:54.066Z,100597.25
2022-11-18T19:31:21.843Z,100606.69
2022-11-18T19:33:49.597Z,100621.03
2022-11-18T19:36:17.297Z,100611.69
2022-11-18T19:38:45.024Z,100627.44
2022-11-18T19:41:14.387Z,100635.41
2022-11-18T19:43:42.271Z,100631.38
2022-11-18T19:46:10.039Z,100622.56
2022-11-18T19:48:37.838Z,100634.00
2022-11-18T19:51:07.567Z,100631.19
2022-11-18T19:53:36.234Z,100636.44
2022-11-18T19:56:05.954Z,100636.06
2022-11-18T19:58:36.268Z,100635.22
2022-11-18T20:01:11.800Z,100643.31
2022-11-18T20:03:39.645Z,100650.50
2022-11-18T20:06:08.010Z,100645.56
2022-11-18T20:08:36.132Z,100650.97
2022-11-18T20:11:08.068Z,100640.91
2022-11-18T20:13:39.183Z,100650.56
2022-11-18T20:16:11.373Z,100637.63
2022-11-18T20:18:40.336Z,100651.81
2022-11-18T20:21:09.347Z,100642.84
2022-11-18T20:23:37.893Z,100659.41
2022-11-18T20:26:06.880Z,100655.38
2022-11-18T20:28:35.822Z,100660.63
2022-11-18T20:31:05.432Z,100664.03
2022-11-18T20:33:35.003Z,100667.66
2022-11-18T20:36:07.565Z,100679.91
2022-11-18T20:38:35.579Z,100675.53
2022-11-18T20:41:03.861Z,100670.75
2022-11-18T20:43:33.904Z,100681.34
2022-11-18T20:46:02.441Z,100674.16
2022-11-18T20:48:32.671Z,100694.72
2022-11-18T20:51:03.946Z,100699.94
2022-11-18T20:53:31.819Z,100706.13
2022-11-18T20:55:59.516Z,100705.19
2022-11-18T20:58:27.202Z,100705.28
2022-11-18T21:00:59.262Z,100696.44
2022-11-18T21:03:29.540Z,100699.94
2022-11-18T21:05:58.976Z,100710.44
2022-11-18T21:08:26.734Z,100707.06
2022-11-18T21:10:54.602Z,100714.09
2022-11-18T21:13:40.081Z,100710.84
2022-11-18T21:16:08.144Z,100709.31
2022-11-18T21:18:35.869Z,100720.63
2022-11-18T21:21:22.999Z,100726.72
2022-11-18T21:23:50.663Z,100719.81
2022-11-18T21:26:18.379Z,100728.34
2022-11-18T21:28:45.999Z,100723.00
2022-11-18T21:31:13.660Z,100725.63
2022-11-18T21:33:41.325Z,100728.97
2022-11-18T21:36:10.938Z,100725.78
2022-11-18T21:38:38.641Z,100728.41
2022-11-18T21:41:09.569Z,100722.72
2022-11-18T21:46:27.257Z,100734.78
2022-11-18T21:48:59.852Z,100722.31
2022-11-18T21:51:31.472Z,100723.16
2022-11-18T21:53:59.284Z,100734.41
2022-11-18T21:56:30.522Z,100737.97
2022-11-18T21:58:59.191Z,100737.22
2022-11-18T22:01:28.537Z,100734.69
2022-11-18T22:03:57.363Z,100741.72
2022-11-18T22:06:26.233Z,100747.03
2022-11-18T22:08:55.333Z,100736.09
2022-11-18T22:11:24.063Z,100735.88
2022-11-18T22:13:52.095Z,100744.69
2022-11-18T22:16:22.135Z,100740.28
2022-11-18T22:18:56.678Z,100739.28
2022-11-18T22:21:26.879Z,100747.88
2022-11-18T22:23:58.554Z,100740.22
2022-11-18T22:26:26.223Z,100750.59
2022-11-18T22:28:57.336Z,100751.59
2022-11-18T22:31:26.582Z,100758.56
2022-11-18T22:33:55.334Z,100763.97
2022-11-18T22:36:25.232Z,100758.72
2022-11-18T22:38:53.112Z,100764.72
2022-11-18T22:41:41.328Z,100753.31
2022-11-18T22:44:10.131Z,100755.16
2022-11-18T22:46:38.671Z,100763.72
2022-11-18T22:49:07.397Z,100766.50
2022-11-18T22:51:35.745Z,100765.00
2022-11-18T22:56:54.184Z,100752.34
2022-11-18T22:59:22.109Z,100762.63
2022-11-18T23:01:51.731Z,100769.00
2022-11-18T23:04:19.500Z,100775.19
2022-11-18T23:06:47.204Z,100777.03
2022-11-18T23:09:15.056Z,100782.63
2022-11-18T23:12:00.455Z,100775.16
2022-11-18T23:14:29.554Z,100783.00
2022-11-18T23:16:57.188Z,100784.84
2022-11-18T23:19:24.868Z,100783.16
2022-11-18T23:21:52.536Z,100788.69
2022-11-18T23:24:20.498Z,100787.84
2022-11-18T23:26:48.380Z,100789.63
2022-11-18T23:29:16.522Z,100780.31
2022-11-18T23:31:46.331Z,100789.78
2022-11-18T23:34:15.990Z,100798.38
2022-11-18T23:36:43.929Z,100793.91
2022-11-18T23:39:11.921Z,100801.09
2022-11-18T23:41:40.142Z,100805.69
2022-11-18T23:44:07.895Z,100800.59
2022-11-18T23:46:35.909Z,100817.31
2022-11-18T23:49:08.793Z,100798.56
2022-11-18T23:51:36.527Z,100804.53
2022-11-18T23:54:04.264Z,100815.75
2022-11-18T23:56:37.453Z,100821.09
2022-11-18T23:59:06.594Z,100818.56
